Main page
Satellite images 10-day forecastsClimateMarine weather Cyclones Lightning AirportsFAQ Newsletter About
Weather : Europe Africa North America South America Asia Australia-Oceania Others
Languages Contact

Budapest, Hungary

Budapest Ferenc Liszt International Airport

latitude: 47-26N, longitude: 019-16E, elevation: 151 m


METAR: LHBP 031100Z 29023KT CAVOK 08/M06 Q1022 NOSIG
TAF: LHBP 030500Z 0306/0406 30015KT CAVOK TEMPO 0306/0315 31018G28KT BECMG 0316/0318 24005KT

Time: 12:07 (11:07 UTC)

Current weather observation

The report was made 7 minutes ago, at 11:00 UTC
Wind 23 kt from the West/Northwest
Temperature 8°C
Humidity 36%
Pressure 1022 hPa
Visibility 10 km or more
no clouds below 1500 m and no cumulonimbus

Change units

Forecast

The report was made 6 hours and 7 minutes ago, at 05:00 UTC
Forecast valid from 03 at 06 UTC to 04 at 06 UTC
Wind 15 kt from the West/Northwest
Visibility 10 km or more
no clouds below 1500 m and no cumulonimbus
Temporary
from 03 at 06 UTC to 03 at 15 UTC
Wind 18 kt from the Northwest with gusts up to 28 kt
Becoming
from 03 at 16 UTC to 03 at 18 UTC
Wind 5 kt from the West/Southwest
The information on this site is subject to a disclaimer
Weather : Europe Africa North America South America Asia Australia-Oceania Others
Satellite images 10-day forecastsClimateMarine weather Cyclones Lightning AirportsFAQ Languages Contact Newsletter About